Time;durP1;ratioP1;P1;durP2;ratioP2;P2;SDS_P1;SDS_P2;PMS_P1;PMS_P2;Temp;Humidity;BMP_temperature;BMP_pressure;BME280_temperature;BME280_humidity;BME280_pressure;Samples;Min_cycle;Max_cycle;Signal;HPM_P1;HPM_P2
2021/09/18 00:08:25;;;;;;;2.35;1.70;;;19.00;99.90;;;;;;2631753;46;20196;-81
2021/09/18 00:10:55;;;;;;;5.03;2.10;;;14.00;99.90;;;;;;2631680;54;20141;-82
2021/09/18 00:13:24;;;;;;;4.05;1.88;;;13.80;99.90;;;;;;2631638;46;20144;-79
2021/09/18 00:15:53;;;;;;;1.92;1.20;;;13.90;99.90;;;;;;2631581;54;20169;-83
2021/09/18 00:18:24;;;;;;;2.28;1.48;;;13.70;99.90;;;;;;2614155;39;20362;31
2021/09/18 00:20:55;;;;;;;2.25;1.10;;;13.60;99.90;;;;;;2630958;46;20165;-77
2021/09/18 00:23:27;;;;;;;1.35;1.13;;;13.70;99.90;;;;;;2631465;51;20125;-80
2021/09/18 00:25:56;;;;;;;1.33;1.17;;;13.80;99.90;;;;;;2631663;54;20171;-81
2021/09/18 00:28:24;;;;;;;2.15;1.50;;;13.70;99.90;;;;;;2630055;54;20204;-82
2021/09/18 00:30:58;;;;;;;1.50;1.40;;;13.60;99.90;;;;;;2631744;46;20137;-80
2021/09/18 00:33:27;;;;;;;4.00;2.50;;;13.60;99.90;;;;;;2631309;47;20149;-78
2021/09/18 00:35:56;;;;;;;3.25;1.95;;;13.60;99.90;;;;;;2631309;47;20136;-80
2021/09/18 00:38:27;;;;;;;1.70;1.20;;;13.70;99.90;;;;;;2626635;47;20200;-82
2021/09/18 00:40:56;;;;;;;1.52;1.42;;;13.50;99.90;;;;;;2631514;54;20132;-81
2021/09/18 00:43:25;;;;;;;1.98;1.05;;;13.50;99.90;;;;;;2631289;54;20133;-78
2021/09/18 00:45:54;;;;;;;4.68;1.60;;;13.50;99.90;;;;;;2631654;47;20150;-79
2021/09/18 00:48:23;;;;;;;2.17;1.48;;;13.40;99.90;;;;;;2631342;47;20177;-80
2021/09/18 00:53:36;;;;;;;1.92;1.48;;;13.40;99.90;;;;;;2629139;47;20713;-77
2021/09/18 00:56:07;;;;;;;2.28;1.45;;;13.30;99.90;;;;;;2630390;54;20135;-78
2021/09/18 00:58:36;;;;;;;1.70;1.35;;;13.30;99.90;;;;;;2630540;54;20148;-78
2021/09/18 01:01:05;;;;;;;1.90;1.38;;;13.20;99.90;;;;;;2630577;54;20159;-79
2021/09/18 01:03:34;;;;;;;3.13;1.50;;;13.20;99.90;;;;;;2630060;54;20157;-79
2021/09/18 01:06:03;;;;;;;2.17;1.50;;;13.00;99.90;;;;;;2630569;54;20146;-78
2021/09/18 01:08:32;;;;;;;2.28;1.50;;;13.00;99.90;;;;;;2630452;54;20208;-78
2021/09/18 01:11:04;;;;;;;1.70;1.58;;;13.10;99.90;;;;;;2630170;47;20268;-78
2021/09/18 01:13:35;;;;;;;3.28;1.75;;;13.10;99.90;;;;;;2630380;54;20176;-79
2021/09/18 01:16:04;;;;;;;1.38;1.20;;;13.20;99.90;;;;;;2630591;54;20160;-79
2021/09/18 01:18:33;;;;;;;2.78;2.10;;;13.10;99.90;;;;;;2630155;54;20138;-78
2021/09/18 01:21:03;;;;;;;1.75;1.30;;;13.00;99.90;;;;;;2630198;46;20188;-79
2021/09/18 01:23:35;;;;;;;1.73;1.63;;;13.00;99.90;;;;;;2630303;47;20793;-78
2021/09/18 01:26:04;;;;;;;2.00;1.77;;;12.90;99.90;;;;;;2630869;54;20156;-79
2021/09/18 01:28:33;;;;;;;2.45;1.77;;;12.70;99.90;;;;;;2630537;54;20204;-79
2021/09/18 01:31:02;;;;;;;1.50;1.40;;;12.70;99.90;;;;;;2630071;47;20197;-79
2021/09/18 01:33:31;;;;;;;2.88;1.30;;;12.90;99.90;;;;;;2629483;47;20213;-78
2021/09/18 01:36:00;;;;;;;4.93;1.42;;;13.10;99.90;;;;;;2629751;47;20156;-80
2021/09/18 01:38:29;;;;;;;1.90;1.27;;;13.00;99.90;;;;;;2629346;54;20184;-79
2021/09/18 01:41:00;;;;;;;2.38;1.33;;;12.90;99.90;;;;;;2630015;54;20292;-79
2021/09/18 01:43:30;;;;;;;1.10;1.10;;;12.80;99.90;;;;;;2629276;54;20144;-78
2021/09/18 01:45:59;;;;;;;2.90;1.67;;;12.70;99.90;;;;;;2629588;47;20209;-77
2021/09/18 01:48:28;;;;;;;3.10;1.42;;;12.80;99.90;;;;;;2630076;47;20193;-79
2021/09/18 01:50:58;;;;;;;2.42;1.52;;;12.70;99.90;;;;;;2630336;54;20149;-77
2021/09/18 01:53:27;;;;;;;2.05;1.55;;;12.50;99.90;;;;;;2629425;47;20172;-78
2021/09/18 01:55:56;;;;;;;1.58;1.17;;;12.50;99.90;;;;;;2630202;54;20194;-79
2021/09/18 01:58:28;;;;;;;1.90;1.55;;;12.60;99.90;;;;;;2629663;54;20197;-78
2021/09/18 02:01:03;;;;;;;1.75;1.55;;;12.60;99.90;;;;;;2630227;54;20421;-78
2021/09/18 02:03:32;;;;;;;3.42;1.40;;;12.60;99.90;;;;;;2629577;54;20161;-79
2021/09/18 02:06:01;;;;;;;1.80;1.50;;;12.70;99.90;;;;;;2631063;46;20225;-79
2021/09/18 02:08:30;;;;;;;2.78;1.45;;;12.70;99.90;;;;;;2630170;47;20157;-79
2021/09/18 02:11:00;;;;;;;1.52;1.40;;;12.60;99.90;;;;;;2628415;47;20157;-79
2021/09/18 02:13:31;;;;;;;3.38;1.60;;;12.60;99.90;;;;;;2629936;47;20145;-77
2021/09/18 02:16:00;;;;;;;2.70;1.40;;;12.30;99.90;;;;;;2630369;54;20154;-79
2021/09/18 02:18:29;;;;;;;3.42;1.77;;;12.20;99.90;;;;;;2630173;47;20191;-78
2021/09/18 02:20:58;;;;;;;1.48;1.38;;;12.30;99.90;;;;;;2630359;47;20180;-79
2021/09/18 02:23:27;;;;;;;3.78;1.98;;;12.50;99.90;;;;;;2629829;47;20184;-79
2021/09/18 02:25:56;;;;;;;3.10;1.80;;;12.50;99.90;;;;;;2630461;54;20165;-78
2021/09/18 02:28:26;;;;;;;1.52;1.42;;;12.40;99.90;;;;;;2630383;54;20169;-78
2021/09/18 02:30:57;;;;;;;3.17;2.50;;;12.60;99.90;;;;;;2630249;54;20154;-77
2021/09/18 02:33:26;;;;;;;2.90;1.65;;;12.70;99.90;;;;;;2629543;54;20175;-77
2021/09/18 02:35:55;;;;;;;2.65;1.38;;;12.90;99.90;;;;;;2629857;47;20201;-77
2021/09/18 02:38:26;;;;;;;1.67;1.55;;;12.90;99.90;;;;;;2630219;54;20690;-78
2021/09/18 02:40:55;;;;;;;1.85;1.50;;;12.90;99.90;;;;;;2630408;54;20153;-76
2021/09/18 02:43:23;;;;;;;5.57;1.98;;;12.70;99.90;;;;;;2629890;54;20181;-77
2021/09/18 02:45:52;;;;;;;2.35;1.40;;;12.60;99.90;;;;;;2630795;54;20193;-77
2021/09/18 02:48:26;;;;;;;3.40;2.00;;;12.60;99.90;;;;;;2631780;31;20714;-79
2021/09/18 02:50:55;;;;;;;2.55;1.80;;;12.50;99.90;;;;;;2630292;54;20755;-78
2021/09/18 02:53:24;;;;;;;4.93;2.33;;;12.40;99.90;;;;;;2630856;47;20188;-79
2021/09/18 02:55:53;;;;;;;6.28;2.50;;;12.50;99.90;;;;;;2631138;47;20134;-79
2021/09/18 02:58:22;;;;;;;4.07;2.65;;;12.50;99.90;;;;;;2631186;47;20149;-79
2021/09/18 03:00:51;;;;;;;2.30;1.92;;;12.40;99.90;;;;;;2631199;47;20173;-80
2021/09/18 03:03:20;;;;;;;3.05;2.70;;;12.40;99.90;;;;;;2631041;54;20172;-79
2021/09/18 03:05:51;;;;;;;2.85;2.35;;;12.30;99.90;;;;;;2631076;47;20152;-79
2021/09/18 03:08:20;;;;;;;3.38;2.08;;;12.30;99.90;;;;;;2630310;47;20172;-78
2021/09/18 03:10:49;;;;;;;2.25;2.10;;;12.40;99.90;;;;;;2630690;47;20168;-79
2021/09/18 03:13:18;;;;;;;3.40;1.98;;;12.30;99.90;;;;;;2630720;47;20153;-76
2021/09/18 03:15:47;;;;;;;4.72;2.53;;;12.40;99.90;;;;;;2631096;46;20148;-80
2021/09/18 03:18:16;;;;;;;3.22;2.95;;;12.40;99.90;;;;;;2631121;54;20160;-79
2021/09/18 03:20:44;;;;;;;9.77;3.00;;;12.40;99.90;;;;;;2630944;47;20702;-79
2021/09/18 03:23:16;;;;;;;4.30;3.05;;;12.30;99.90;;;;;;2630825;47;20176;-78
2021/09/18 03:25:45;;;;;;;3.85;2.67;;;12.40;99.90;;;;;;2630995;47;20156;-79
2021/09/18 03:28:14;;;;;;;3.35;3.05;;;12.40;99.90;;;;;;2630973;47;20164;-79
2021/09/18 03:30:43;;;;;;;4.47;2.78;;;12.20;99.90;;;;;;2631068;47;20148;-79
2021/09/18 03:33:12;;;;;;;7.60;3.92;;;12.30;99.90;;;;;;2630617;47;20172;-79
2021/09/18 03:35:42;;;;;;;4.78;3.40;;;12.30;99.90;;;;;;2630451;47;20156;-78
2021/09/18 03:38:11;;;;;;;2.85;2.63;;;12.30;99.90;;;;;;2638284;31;20682;-78
2021/09/18 03:40:42;;;;;;;4.28;3.83;;;12.20;99.90;;;;;;2630845;47;20142;-79
2021/09/18 03:43:11;;;;;;;4.40;3.45;;;12.40;99.90;;;;;;2630627;47;20211;-78
2021/09/18 03:45:40;;;;;;;5.80;3.78;;;12.20;99.90;;;;;;2630899;46;20176;-80
2021/09/18 03:48:09;;;;;;;6.20;4.25;;;12.20;99.90;;;;;;2630261;47;20149;-77
2021/09/18 03:50:38;;;;;;;4.53;4.10;;;12.20;99.90;;;;;;2630760;47;20157;-78
2021/09/18 03:53:07;;;;;;;5.25;4.75;;;12.10;99.90;;;;;;2630904;54;20156;-79
2021/09/18 03:55:36;;;;;;;6.50;5.90;;;11.90;99.90;;;;;;2630816;47;20176;-79
2021/09/18 03:58:07;;;;;;;6.28;5.47;;;12.00;99.90;;;;;;2633222;46;20677;-79
2021/09/18 04:00:36;;;;;;;7.50;6.80;;;11.90;99.90;;;;;;2639881;39;20595;-80
2021/09/18 04:03:05;;;;;;;8.00;7.20;;;12.00;99.90;;;;;;2631148;54;20153;-79
2021/09/18 04:05:34;;;;;;;7.28;6.57;;;12.10;99.90;;;;;;2630969;47;20144;-80
2021/09/18 04:08:08;;;;;;;7.50;5.95;;;12.00;99.90;;;;;;2631282;47;20160;-80
2021/09/18 04:10:38;;;;;;;6.47;5.88;;;11.90;99.90;;;;;;2631249;47;20146;-79
2021/09/18 04:13:09;;;;;;;8.27;5.13;;;11.80;99.90;;;;;;2641010;39;20621;-79
2021/09/18 04:15:38;;;;;;;5.45;4.82;;;12.00;99.90;;;;;;2631086;47;20160;-80
2021/09/18 04:18:07;;;;;;;5.50;5.05;;;11.90;99.90;;;;;;2631089;54;20164;-79
2021/09/18 04:20:35;;;;;;;5.35;4.95;;;12.00;99.90;;;;;;2631266;47;20157;-78
2021/09/18 04:23:04;;;;;;;8.73;4.55;;;12.00;99.90;;;;;;2631036;54;20164;-79
2021/09/18 04:25:33;;;;;;;6.30;4.63;;;12.20;99.90;;;;;;2630971;47;20157;-80
2021/09/18 04:28:02;;;;;;;8.07;6.07;;;12.20;99.90;;;;;;2631137;54;20183;-79
2021/09/18 04:30:35;;;;;;;5.50;4.90;;;12.20;99.90;;;;;;2631078;47;20136;-79
2021/09/18 04:33:03;;;;;;;6.25;5.07;;;12.10;99.90;;;;;;2630950;46;20206;-80
2021/09/18 04:35:32;;;;;;;5.25;3.80;;;12.00;99.90;;;;;;2631019;46;20172;-79
2021/09/18 04:38:01;;;;;;;5.10;4.50;;;12.00;99.90;;;;;;2632803;46;20156;-78
2021/09/18 04:40:30;;;;;;;6.32;4.35;;;11.90;99.90;;;;;;2630571;54;20130;-78
2021/09/18 04:42:59;;;;;;;3.95;3.33;;;12.20;99.90;;;;;;2630937;47;20141;-80
2021/09/18 04:45:29;;;;;;;6.95;3.65;;;12.10;99.90;;;;;;2630827;54;20213;-79
2021/09/18 04:48:00;;;;;;;4.47;3.53;;;12.10;99.90;;;;;;2631090;47;20840;-79
2021/09/18 04:50:29;;;;;;;3.90;3.60;;;12.20;99.90;;;;;;2646135;31;20888;-78
2021/09/18 04:52:58;;;;;;;3.38;3.08;;;12.40;99.90;;;;;;2630900;54;20187;-79
2021/09/18 04:55:27;;;;;;;7.50;3.67;;;12.30;99.90;;;;;;2631334;46;20152;-79
2021/09/18 04:57:56;;;;;;;5.43;3.38;;;12.40;99.90;;;;;;2630920;47;20160;-80
2021/09/18 05:00:25;;;;;;;6.78;3.33;;;12.40;99.90;;;;;;2630641;47;20137;-79
2021/09/18 05:02:53;;;;;;;4.57;4.13;;;12.40;99.90;;;;;;2630741;54;20157;-78
2021/09/18 05:05:25;;;;;;;4.68;4.28;;;12.50;99.90;;;;;;2630560;47;20152;-81
2021/09/18 05:07:54;;;;;;;4.45;4.05;;;12.50;99.90;;;;;;2631126;47;20133;-79
2021/09/18 05:10:23;;;;;;;7.53;4.38;;;12.30;99.90;;;;;;2630761;51;20167;-78
2021/09/18 05:12:52;;;;;;;6.53;4.55;;;12.30;99.90;;;;;;2630889;54;20902;-79
2021/09/18 05:15:20;;;;;;;6.78;5.07;;;12.40;99.90;;;;;;2630588;47;20146;-80
2021/09/18 05:17:49;;;;;;;9.27;6.57;;;12.70;99.90;;;;;;2630899;47;20157;-79
2021/09/18 05:20:18;;;;;;;6.15;5.55;;;12.70;99.90;;;;;;2630860;46;20157;-79
2021/09/18 05:22:50;;;;;;;5.53;5.03;;;12.60;99.90;;;;;;2630893;47;20226;-79
2021/09/18 05:25:19;;;;;;;5.53;4.97;;;12.60;99.90;;;;;;2630622;54;20148;-79
2021/09/18 05:27:49;;;;;;;4.80;4.45;;;12.50;99.90;;;;;;2630856;47;20264;-79
2021/09/18 05:30:17;;;;;;;5.82;5.32;;;12.60;99.90;;;;;;2646456;31;20726;-78
2021/09/18 05:32:46;;;;;;;6.22;5.60;;;12.60;99.90;;;;;;2630463;47;20208;-78
2021/09/18 05:35:15;;;;;;;5.72;5.18;;;12.80;99.90;;;;;;2630004;47;20189;-77
2021/09/18 05:37:44;;;;;;;6.40;5.90;;;12.90;99.90;;;;;;2639196;39;20546;-79
2021/09/18 05:40:16;;;;;;;5.35;4.82;;;12.70;99.90;;;;;;2634748;39;20981;-78
2021/09/18 05:42:45;;;;;;;5.55;5.05;;;12.70;99.90;;;;;;2630537;47;20168;-79
2021/09/18 05:45:14;;;;;;;6.18;5.20;;;12.70;99.90;;;;;;2630508;47;20155;-78
2021/09/18 05:47:43;;;;;;;6.45;4.93;;;12.80;99.90;;;;;;2630810;47;20157;-79
2021/09/18 05:50:12;;;;;;;5.03;4.30;;;12.90;99.90;;;;;;2630835;46;20129;-79
2021/09/18 05:52:41;;;;;;;7.03;5.78;;;12.80;99.90;;;;;;2630655;47;20185;-80
2021/09/18 05:55:11;;;;;;;5.78;5.25;;;12.90;99.90;;;;;;2630361;47;20787;-78
2021/09/18 05:57:42;;;;;;;8.00;5.65;;;12.90;99.90;;;;;;2630804;47;20160;-78
2021/09/18 06:00:12;;;;;;;5.43;4.70;;;13.00;99.90;;;;;;2630735;54;20156;-78
2021/09/18 06:02:41;;;;;;;5.38;4.88;;;13.10;99.90;;;;;;2630320;47;20156;-79
2021/09/18 06:05:12;;;;;;;4.15;3.75;;;13.00;99.90;;;;;;2636998;39;20763;-79
2021/09/18 06:07:41;;;;;;;6.10;5.30;;;13.10;99.90;;;;;;2630826;47;20141;-79
2021/09/18 06:10:12;;;;;;;6.85;4.63;;;13.00;99.90;;;;;;2630615;47;20204;-78
2021/09/18 06:12:43;;;;;;;7.78;5.47;;;13.00;99.90;;;;;;2630584;54;20209;-79
2021/09/18 06:15:13;;;;;;;11.38;6.72;;;13.10;99.90;;;;;;2631390;47;20152;-78
2021/09/18 06:17:42;;;;;;;5.30;4.80;;;13.10;99.90;;;;;;2631567;54;20133;-78
2021/09/18 06:20:13;;;;;;;5.55;5.05;;;13.10;99.90;;;;;;2631438;46;20145;-78
2021/09/18 06:22:42;;;;;;;6.95;5.50;;;13.20;99.90;;;;;;2631550;46;20169;-78
2021/09/18 06:25:12;;;;;;;7.35;6.53;;;13.30;99.90;;;;;;2630877;54;20168;-77
2021/09/18 06:27:44;;;;;;;5.95;5.18;;;13.40;99.90;;;;;;2632267;39;20450;-78
2021/09/18 06:30:14;;;;;;;8.27;5.65;;;13.40;99.90;;;;;;2631067;47;20125;-78
2021/09/18 06:32:43;;;;;;;6.95;4.97;;;13.60;99.90;;;;;;2631437;47;20829;-77
2021/09/18 06:35:13;;;;;;;6.07;5.40;;;13.60;99.90;;;;;;2636561;39;20204;-79
2021/09/18 06:37:46;;;;;;;6.45;5.30;;;13.60;99.90;;;;;;2630207;47;20164;-79
2021/09/18 06:40:17;;;;;;;6.45;5.95;;;13.70;99.90;;;;;;2630884;46;20144;-80
2021/09/18 06:42:50;;;;;;;5.03;4.63;;;13.80;99.90;;;;;;2630439;46;20177;-79
2021/09/18 06:45:19;;;;;;;5.82;5.13;;;14.00;99.90;;;;;;2630709;54;20165;-76
2021/09/18 06:47:48;;;;;;;5.65;5.15;;;14.10;99.90;;;;;;2631042;31;20663;-78
2021/09/18 06:50:16;;;;;;;4.82;4.43;;;14.00;99.90;;;;;;2629928;47;20205;-76
2021/09/18 06:52:45;;;;;;;5.82;5.22;;;14.10;99.90;;;;;;2629251;46;20208;-79
2021/09/18 06:55:14;;;;;;;6.05;5.45;;;14.40;99.90;;;;;;2631007;54;20133;-76
2021/09/18 06:57:43;;;;;;;5.30;4.82;;;14.50;99.90;;;;;;2631495;47;20154;-80
2021/09/18 07:00:15;;;;;;;5.43;4.85;;;14.20;99.90;;;;;;2636328;39;20661;-79
2021/09/18 07:02:44;;;;;;;6.65;5.38;;;14.10;99.90;;;;;;2631630;46;20180;-78
2021/09/18 07:05:13;;;;;;;5.70;5.28;;;14.30;99.90;;;;;;2631319;54;20129;-79
2021/09/18 07:07:42;;;;;;;8.18;5.03;;;14.30;99.90;;;;;;2631527;46;20757;-75
2021/09/18 07:10:12;;;;;;;6.07;5.57;;;14.20;99.90;;;;;;2631547;46;20133;-79
2021/09/18 07:12:41;;;;;;;6.50;4.95;;;14.30;99.90;;;;;;2631390;54;21408;-78
2021/09/18 07:15:11;;;;;;;5.45;4.93;;;14.30;99.90;;;;;;2631737;31;20863;-77
2021/09/18 07:17:43;;;;;;;4.78;4.35;;;14.20;99.90;;;;;;2631284;54;20180;-80
2021/09/18 07:20:14;;;;;;;7.38;4.57;;;14.30;99.90;;;;;;2631553;46;20141;-76
2021/09/18 07:22:43;;;;;;;6.95;4.80;;;14.20;99.90;;;;;;2632332;31;20826;-78
2021/09/18 07:25:13;;;;;;;6.03;5.53;;;14.20;99.90;;;;;;2630846;54;20144;-80
2021/09/18 07:27:42;;;;;;;5.68;5.03;;;14.40;99.90;;;;;;2631187;46;20133;-78
2021/09/18 07:30:12;;;;;;;5.70;5.13;;;14.50;99.90;;;;;;2632312;39;20810;-77
2021/09/18 07:32:43;;;;;;;8.68;5.05;;;14.50;99.90;;;;;;2631156;47;20179;-80
2021/09/18 07:35:12;;;;;;;6.03;5.43;;;14.60;99.90;;;;;;2631190;47;20141;-79
2021/09/18 07:37:42;;;;;;;5.22;4.72;;;14.90;99.90;;;;;;2631316;47;20145;-79
2021/09/18 07:40:13;;;;;;;5.53;4.75;;;15.00;99.90;;;;;;2631376;54;20134;-80
2021/09/18 07:42:43;;;;;;;7.00;5.85;;;14.90;99.90;;;;;;2631464;46;21030;-79
2021/09/18 07:45:12;;;;;;;8.30;5.55;;;15.10;99.90;;;;;;2631162;46;20149;-77
2021/09/18 07:47:45;;;;;;;5.72;5.22;;;15.40;99.90;;;;;;2631272;54;20229;-78
2021/09/18 07:50:14;;;;;;;6.15;5.43;;;15.30;99.90;;;;;;2630718;46;20766;-78
2021/09/18 07:52:43;;;;;;;6.63;4.88;;;15.30;99.90;;;;;;2631241;47;20852;-78
2021/09/18 07:55:13;;;;;;;7.78;6.18;;;15.20;99.90;;;;;;2638604;31;20789;-79
2021/09/18 07:57:42;;;;;;;5.40;4.43;;;15.40;99.90;;;;;;2631368;46;20161;-79
2021/09/18 08:00:12;;;;;;;6.35;4.90;;;15.40;99.90;;;;;;2631507;46;20141;-79
2021/09/18 08:02:41;;;;;;;4.80;4.50;;;15.50;99.90;;;;;;2631205;54;20188;-79
2021/09/18 08:05:13;;;;;;;5.22;4.72;;;15.40;99.90;;;;;;2631637;46;20149;-79
2021/09/18 08:07:42;;;;;;;6.05;5.20;;;15.40;99.90;;;;;;2631445;46;20161;-79
2021/09/18 08:10:13;;;;;;;7.85;5.30;;;15.50;99.90;;;;;;2631190;54;20138;-78
2021/09/18 08:12:45;;;;;;;6.40;5.80;;;15.50;99.90;;;;;;2631359;46;20237;-78
2021/09/18 08:15:15;;;;;;;5.97;5.38;;;15.40;99.90;;;;;;2631100;54;20157;-79
2021/09/18 08:17:44;;;;;;;6.53;5.38;;;15.70;99.90;;;;;;2631351;46;20145;-78
2021/09/18 08:20:18;;;;;;;6.20;5.00;;;15.60;99.90;;;;;;2640434;39;20734;-79
2021/09/18 08:22:47;;;;;;;7.03;5.78;;;15.70;99.90;;;;;;2631328;46;20169;-78
2021/09/18 08:25:16;;;;;;;6.05;4.85;;;15.70;99.90;;;;;;2630948;46;20130;-77
2021/09/18 08:27:45;;;;;;;7.32;5.20;;;15.80;99.90;;;;;;2631273;47;20175;-79
2021/09/18 08:30:15;;;;;;;5.25;4.80;;;15.70;99.90;;;;;;2631061;46;20145;-78
2021/09/18 08:32:45;;;;;;;6.32;5.78;;;15.70;99.90;;;;;;2631286;46;20176;-78
2021/09/18 08:35:17;;;;;;;8.75;5.22;;;15.70;99.90;;;;;;2630962;46;20174;-77
2021/09/18 08:37:46;;;;;;;5.63;5.15;;;15.50;99.90;;;;;;2631085;47;20156;-78
2021/09/18 08:40:15;;;;;;;6.28;5.35;;;15.70;99.90;;;;;;2630282;47;20201;-75
2021/09/18 08:42:44;;;;;;;5.43;5.03;;;15.70;99.90;;;;;;2629578;54;20223;-75
2021/09/18 08:45:15;;;;;;;6.15;5.53;;;15.90;99.90;;;;;;2629542;46;20202;-73
2021/09/18 08:47:44;;;;;;;7.38;5.38;;;16.00;99.90;;;;;;2629244;54;20129;-77
2021/09/18 08:50:21;;;;;;;6.40;5.70;;;16.00;99.90;;;;;;2630864;47;20168;-78
2021/09/18 08:52:52;;;;;;;9.70;5.80;;;16.10;99.90;;;;;;2630421;54;20725;-76
2021/09/18 08:55:21;;;;;;;5.07;4.70;;;16.00;99.90;;;;;;2629739;47;20160;-77
2021/09/18 08:57:52;;;;;;;5.15;4.65;;;16.00;99.90;;;;;;2629645;47;20161;-76
2021/09/18 09:00:43;;;;;;;7.15;4.72;;;16.20;99.90;;;;;;2629178;54;20276;-75
2021/09/18 09:03:13;;;;;;;4.97;4.57;;;16.20;99.90;;;;;;2628589;54;20185;-76
2021/09/18 09:05:47;;;;;;;4.70;4.32;;;16.40;99.90;;;;;;2628783;54;20228;-75
2021/09/18 09:08:18;;;;;;;7.30;4.65;;;16.60;99.90;;;;;;2629763;47;20172;-78
2021/09/18 09:10:49;;;;;;;5.30;4.78;;;16.60;99.90;;;;;;2633484;39;20671;-77
2021/09/18 09:13:20;;;;;;;6.07;5.47;;;16.60;99.90;;;;;;2629715;47;20829;-76
2021/09/18 09:15:50;;;;;;;6.07;5.57;;;16.90;99.90;;;;;;2629217;54;20681;-76
2021/09/18 09:18:22;;;;;;;8.68;5.70;;;16.90;99.90;;;;;;2628263;46;20160;-75
2021/09/18 09:21:11;;;;;;;5.57;5.07;;;16.90;99.90;;;;;;2628641;54;20169;-77
2021/09/18 09:23:40;;;;;;;8.13;5.60;;;16.90;99.90;;;;;;2628352;54;20173;-77
2021/09/18 09:26:09;;;;;;;5.05;4.55;;;17.00;99.90;;;;;;2627755;54;20161;-77
2021/09/18 09:28:40;;;;;;;5.38;4.88;;;17.10;99.90;;;;;;2627745;47;20210;-77
2021/09/18 09:31:16;;;;;;;5.97;5.47;;;17.10;99.90;;;;;;2630086;46;20168;-74
2021/09/18 09:34:02;;;;;;;6.25;5.65;;;16.90;99.90;;;;;;2628080;54;20172;-76
2021/09/18 09:36:39;;;;;;;10.18;6.68;;;16.90;99.90;;;;;;2628688;54;20706;-79
2021/09/18 09:39:09;;;;;;;10.85;6.32;;;16.70;99.90;;;;;;2629269;46;20157;-76
2021/09/18 09:41:41;;;;;;;5.95;5.35;;;16.50;99.90;;;;;;2628632;54;20154;-76
2021/09/18 09:44:16;;;;;;;6.40;5.63;;;16.30;99.90;;;;;;2627749;47;20141;-77
2021/09/18 09:46:45;;;;;;;8.70;7.38;;;16.60;99.90;;;;;;2627524;47;20216;-74
2021/09/18 09:49:17;;;;;;;9.18;6.97;;;17.00;99.90;;;;;;2627098;47;20153;-76
2021/09/18 09:51:48;;;;;;;7.38;6.57;;;17.10;99.90;;;;;;2627537;54;20146;-76
2021/09/18 09:54:23;;;;;;;6.63;6.03;;;17.00;99.90;;;;;;2629000;47;20148;-78
2021/09/18 09:57:08;;;;;;;8.88;7.47;;;17.10;99.90;;;;;;2626652;39;20423;-74
2021/09/18 09:59:38;;;;;;;7.28;6.65;;;17.20;99.90;;;;;;2624424;54;20156;-75
2021/09/18 10:02:09;;;;;;;8.10;7.30;;;17.50;99.90;;;;;;2624462;47;20177;-74
2021/09/18 10:04:38;;;;;;;8.82;7.93;;;17.60;99.90;;;;;;2624742;54;20145;-75
2021/09/18 10:07:11;;;;;;;8.30;7.50;;;17.50;99.90;;;;;;2629007;54;20161;-76
2021/09/18 10:09:42;;;;;;;9.73;7.57;;;17.60;99.90;;;;;;2628193;47;20152;-77
2021/09/18 10:12:14;;;;;;;10.75;7.65;;;18.00;99.90;;;;;;2626880;54;20153;-76
2021/09/18 10:14:47;;;;;;;7.85;7.10;;;17.90;99.90;;;;;;2627246;39;20649;-75
2021/09/18 10:17:19;;;;;;;8.50;7.65;;;17.90;99.90;;;;;;2626480;54;20175;-74
2021/09/18 10:20:12;;;;;;;7.53;6.93;;;18.10;99.90;;;;;;2632095;31;20686;-78
2021/09/18 10:25:37;;;;;;;7.70;7.00;;;17.90;99.90;;;;;;2628422;47;20269;-77
2021/09/18 10:28:11;;;;;;;8.63;6.45;;;17.80;99.90;;;;;;2627734;47;20168;-78
2021/09/18 10:30:43;;;;;;;7.15;6.55;;;17.90;99.90;;;;;;2627561;47;20154;-76
2021/09/18 10:33:35;;;;;;;6.45;5.72;;;18.10;99.90;;;;;;2629652;48;20843;-78
2021/09/18 10:36:07;;;;;;;6.78;6.20;;;18.30;99.90;;;;;;2630943;47;20145;-80
2021/09/18 10:38:40;;;;;;;8.18;7.38;;;18.70;99.90;;;;;;2630304;47;20765;-79
2021/09/18 10:41:11;;;;;;;7.20;6.50;;;19.00;99.90;;;;;;2629522;47;20141;-80
2021/09/18 10:43:42;;;;;;;5.72;5.18;;;19.20;99.90;;;;;;2630388;47;20161;-79
2021/09/18 10:46:14;;;;;;;7.25;6.65;;;19.50;99.90;;;;;;2627862;47;20157;-78
2021/09/18 10:48:49;;;;;;;5.65;4.80;;;19.70;99.90;;;;;;2629176;47;20149;-77
2021/09/18 10:51:34;;;;;;;4.68;4.30;;;19.50;99.90;;;;;;2628640;47;20149;-77
2021/09/18 10:54:17;;;;;;;4.53;4.13;;;19.20;99.90;;;;;;2629443;54;20180;-76
2021/09/18 10:57:04;;;;;;;5.43;4.85;;;19.10;99.90;;;;;;2630880;46;20196;-75
2021/09/18 10:59:51;;;;;;;5.90;3.85;;;19.50;99.90;;;;;;2628302;54;20157;-75
2021/09/18 11:02:46;;;;;;;4.18;3.88;;;19.60;99.90;;;;;;2632010;46;20187;-78
2021/09/18 11:05:48;;;;;;;4.70;4.07;;;19.80;99.90;;;;;;2631139;54;20149;-79
2021/09/18 11:08:36;;;;;;;3.97;3.67;;;19.80;99.90;;;;;;2630996;54;20702;-77
2021/09/18 11:11:25;;;;;;;4.15;3.85;;;20.10;99.90;;;;;;2631297;54;20149;-77
2021/09/18 11:14:03;;;;;;;3.75;3.45;;;19.80;99.90;;;;;;2631198;54;20134;-78
2021/09/18 11:16:41;;;;;;;4.25;3.80;;;19.90;99.90;;;;;;2631077;54;20729;-75
2021/09/18 11:19:20;;;;;;;3.03;2.75;;;19.40;99.90;;;;;;2631418;46;20129;-77
2021/09/18 11:21:58;;;;;;;3.75;3.47;;;19.40;99.90;;;;;;2635990;39;20698;-79
2021/09/18 11:24:36;;;;;;;7.13;6.53;;;19.60;99.90;;;;;;2631065;54;20797;-77
2021/09/18 11:27:35;;;;;;;10.95;10.18;;;19.70;99.90;;;;;;2631435;46;20130;-80
2021/09/18 11:30:13;;;;;;;5.88;5.38;;;19.60;99.90;;;;;;2631308;54;20145;-76
2021/09/18 11:32:53;;;;;;;4.75;4.18;;;19.60;99.90;;;;;;2630432;54;20169;-75
2021/09/18 11:35:31;;;;;;;9.20;8.30;;;19.80;99.90;;;;;;2629776;54;20133;-81
2021/09/18 11:38:10;;;;;;;6.95;4.90;;;19.80;99.90;;;;;;2630804;54;20153;-78
2021/09/18 11:40:47;;;;;;;3.53;3.33;;;19.80;99.90;;;;;;2631626;54;20130;-79
2021/09/18 11:43:31;;;;;;;4.28;3.97;;;20.00;99.90;;;;;;2631423;54;20161;-79
2021/09/18 11:46:10;;;;;;;3.75;3.45;;;20.10;99.90;;;;;;2631713;54;20185;-78
2021/09/18 11:48:59;;;;;;;2.92;2.67;;;19.80;99.90;;;;;;2631685;54;20172;-78
2021/09/18 11:51:37;;;;;;;5.03;3.38;;;19.80;99.90;;;;;;2635934;46;20134;-79
2021/09/18 11:54:14;;;;;;;3.55;3.25;;;20.00;99.90;;;;;;2631385;54;20130;-79
2021/09/18 11:56:52;;;;;;;3.88;3.58;;;20.10;99.90;;;;;;2631575;54;20143;-78
2021/09/18 11:59:32;;;;;;;3.90;3.55;;;20.20;99.90;;;;;;2631734;54;20148;-81
2021/09/18 12:02:10;;;;;;;4.20;3.13;;;20.00;99.90;;;;;;2631403;54;20228;-79
2021/09/18 12:04:48;;;;;;;2.72;2.53;;;20.00;99.90;;;;;;2631651;54;20136;-77
2021/09/18 12:07:27;;;;;;;3.40;3.15;;;20.10;99.90;;;;;;2631738;54;20145;-81
2021/09/18 12:54:21;;;;;;;4.10;2.75;;;20.20;99.90;;;;;;2624165;46;20766;-77
2021/09/18 12:57:09;;;;;;;2.75;2.28;;;21.10;99.90;;;;;;2623005;39;20575;-76
2021/09/18 12:59:47;;;;;;;3.25;1.83;;;20.80;99.90;;;;;;2622921;54;20149;-76
2021/09/18 13:02:28;;;;;;;1.70;1.60;;;20.90;99.90;;;;;;2623306;54;20164;-76
2021/09/18 13:05:06;;;;;;;1.92;1.77;;;21.30;99.90;;;;;;2623660;54;20153;-77
2021/09/18 13:07:55;;;;;;;2.17;1.45;;;21.30;99.90;;;;;;2622943;54;20209;-77
2021/09/18 13:10:36;;;;;;;2.00;1.73;;;21.10;99.90;;;;;;2627226;54;20717;-77
2021/09/18 13:13:34;;;;;;;2.10;1.98;;;21.20;99.90;;;;;;2629462;54;20173;-76
2021/09/18 13:16:11;;;;;;;3.38;1.67;;;20.90;99.90;;;;;;2624283;54;20157;-76
2021/09/18 13:19:09;;;;;;;4.88;2.33;;;20.80;99.90;;;;;;2623156;47;20183;-75
2021/09/18 13:21:47;;;;;;;2.35;2.15;;;20.80;99.90;;;;;;2623383;54;20188;-75
2021/09/18 13:24:24;;;;;;;1.80;1.70;;;20.60;99.90;;;;;;2623516;47;20152;-77
2021/09/18 13:27:05;;;;;;;4.50;2.42;;;20.70;99.90;;;;;;2624033;47;20165;-76
2021/09/18 13:29:42;;;;;;;1.77;1.30;;;20.60;99.90;;;;;;2624156;54;20157;-77
2021/09/18 13:32:21;;;;;;;4.55;2.08;;;20.40;99.90;;;;;;2622946;54;20183;-77
2021/09/18 13:34:59;;;;;;;3.22;2.38;;;20.70;99.90;;;;;;2623440;54;20715;-78
2021/09/18 13:37:36;;;;;;;5.53;3.15;;;20.80;99.90;;;;;;2624305;39;20259;-77
2021/09/18 13:40:15;;;;;;;3.20;2.90;;;20.80;99.90;;;;;;2623914;54;20161;-77
2021/09/18 13:42:55;;;;;;;3.38;3.08;;;20.80;99.90;;;;;;2622741;54;20181;-77
2021/09/18 13:45:32;;;;;;;2.92;2.72;;;21.00;99.90;;;;;;2622184;54;20176;-76
2021/09/18 13:48:10;;;;;;;2.95;2.70;;;21.10;99.90;;;;;;2623238;54;20160;-76
2021/09/18 13:50:48;;;;;;;2.67;2.55;;;21.20;99.90;;;;;;2623423;54;20172;-77
2021/09/18 13:53:25;;;;;;;2.85;2.65;;;21.00;99.90;;;;;;2627407;54;20215;-77
2021/09/18 13:56:06;;;;;;;4.25;3.60;;;21.10;99.90;;;;;;2628817;54;20220;-77
2021/09/18 13:58:47;;;;;;;4.00;3.70;;;20.90;99.90;;;;;;2628954;54;20205;-76
2021/09/18 14:01:24;;;;;;;2.67;2.47;;;20.90;99.90;;;;;;2626667;54;20168;-75
2021/09/18 14:04:01;;;;;;;3.35;3.05;;;20.60;99.90;;;;;;2627811;54;20215;-75
2021/09/18 14:06:39;;;;;;;3.92;3.63;;;20.40;99.90;;;;;;2626471;47;20157;-76
2021/09/18 14:09:16;;;;;;;4.13;3.35;;;20.30;99.90;;;;;;2628642;47;20157;-77